Terminal Aerodrome Forecast
Issued by NWS Cleveland, OH

Home | Current Version | Previous Version | Text Only | Print | Product List | Glossary Off
Versions: 1 2 3 4 5 6 7 8 9 10 11 12 13 14 15 16 17

000
FTUS41 KCLE 191200 AAA
TAFTOL
TAF AMD
KTOL 191258Z 1913/2012 VRB03KT P6SM SCT025 OVC060
      TEMPO 1913/1915 6SM -SHRA OVC025
     FM191500 VRB03KT P6SM VCSH OVC045
     FM191900 VRB03KT P6SM SCT035 BKN050
     FM192200 VRB03KT P6SM SCT035
     FM200900 00000KT 2SM BR SCT010=

USA.gov is the U.S. government's official web portal to all federal, state and local government web resources and services.